KAFN/AFN METAR and TAF weather

Enter ICAO airport designator
Station Type Date Time Source
KAFN METAR 2019/12/13 21:52 UTC NOAA

KAFN 132152Z AUTO 00000KT 7SM OVC008 01/M02 A3028 RMK AO2 SLP271 T00061017


Station Type Date Time Source
KAFN Decoded METAR 2019/12/13 21:52 UTC NOAA

JAFFREY MUNI-SILVER RANCH, NH, United States (KAFN) 42-48N 72-00W 313M
Dec 13, 2019 - 04:52 PM EST / 2019.12.13 2152 UTC
Wind: Calm:0
Visibility: 7 mile(s):0
Sky conditions: overcast
Temperature: 33.1 F (0.6 C)
Dew Point: 28.9 F (-1.7 C)
Relative Humidity: 84%
Pressure (altimeter): 30.28 in. Hg (1025 hPa)
ob: KAFN 132152Z AUTO 00000KT 7SM OVC008 01/M02 A3028 RMK AO2 SLP271 T00061017
cycle: 22

Station Type Date Time Source
KAFN TAF UTC NOAA

Error!

Example: see airport list